sensor_id;sensor_type;location;lat;lon;timestamp;pressure;altitude;pressure_sealevel;temperature;humidity
80401;BME280;69727;53.132;8.230;2023-06-22T00:02:05;101977.47;;;31.62;33.50
80401;BME280;69727;53.132;8.230;2023-06-22T00:04:31;101983.09;;;31.60;33.44
80401;BME280;69727;53.132;8.230;2023-06-22T00:06:56;101988.69;;;31.59;33.82
80401;BME280;69727;53.132;8.230;2023-06-22T00:09:21;101985.69;;;31.62;33.55
80401;BME280;69727;53.132;8.230;2023-06-22T00:11:47;101989.81;;;31.56;33.98
80401;BME280;69727;53.132;8.230;2023-06-22T00:14:12;101990.44;;;31.60;33.56
80401;BME280;69727;53.132;8.230;2023-06-22T00:16:38;101984.97;;;31.60;34.00
80401;BME280;69727;53.132;8.230;2023-06-22T00:19:03;102003.06;;;31.61;33.83
80401;BME280;69727;53.132;8.230;2023-06-22T00:21:29;102001.50;;;31.58;33.78
80401;BME280;69727;53.132;8.230;2023-06-22T00:23:55;101996.44;;;31.54;33.58
80401;BME280;69727;53.132;8.230;2023-06-22T00:26:21;102001.50;;;31.58;33.91
80401;BME280;69727;53.132;8.230;2023-06-22T00:28:47;101994.56;;;31.54;34.17
80401;BME280;69727;53.132;8.230;2023-06-22T00:31:13;101991.50;;;31.48;33.83
80401;BME280;69727;53.132;8.230;2023-06-22T00:33:38;101990.75;;;31.45;33.91
80401;BME280;69727;53.132;8.230;2023-06-22T00:36:04;101985.56;;;31.42;33.89
80401;BME280;69727;53.132;8.230;2023-06-22T00:38:30;101985.53;;;31.33;34.21
80401;BME280;69727;53.132;8.230;2023-06-22T00:40:55;101983.19;;;31.18;34.53
80401;BME280;69727;53.132;8.230;2023-06-22T00:43:21;101986.22;;;31.25;34.45
80401;BME280;69727;53.132;8.230;2023-06-22T00:45:46;101984.38;;;31.25;35.00
80401;BME280;69727;53.132;8.230;2023-06-22T00:48:13;101980.50;;;31.28;34.88
80401;BME280;69727;53.132;8.230;2023-06-22T00:50:40;101973.59;;;31.24;34.58
80401;BME280;69727;53.132;8.230;2023-06-22T00:53:08;101980.34;;;31.30;34.76
80401;BME280;69727;53.132;8.230;2023-06-22T00:55:35;101980.19;;;31.21;34.50
80401;BME280;69727;53.132;8.230;2023-06-22T00:58:06;101975.00;;;31.18;34.82
80401;BME280;69727;53.132;8.230;2023-06-22T01:00:33;101977.72;;;31.18;34.73
80401;BME280;69727;53.132;8.230;2023-06-22T01:02:59;101967.06;;;31.15;34.48
80401;BME280;69727;53.132;8.230;2023-06-22T01:05:24;101989.19;;;31.12;34.52
80401;BME280;69727;53.132;8.230;2023-06-22T01:10:43;101983.81;;;31.01;34.71
80401;BME280;69727;53.132;8.230;2023-06-22T01:13:25;101982.09;;;31.00;34.80
80401;BME280;69727;53.132;8.230;2023-06-22T01:15:57;101974.75;;;31.00;35.39
80401;BME280;69727;53.132;8.230;2023-06-22T01:18:26;101957.63;;;30.98;35.22
80401;BME280;69727;53.132;8.230;2023-06-22T01:20:54;101969.56;;;30.97;34.89
80401;BME280;69727;53.132;8.230;2023-06-22T01:26:12;101973.28;;;30.96;35.47
80401;BME280;69727;53.132;8.230;2023-06-22T01:31:14;101967.50;;;30.89;35.11
80401;BME280;69727;53.132;8.230;2023-06-22T01:33:42;101961.41;;;30.86;35.41
80401;BME280;69727;53.132;8.230;2023-06-22T01:36:09;101967.00;;;30.84;35.42
80401;BME280;69727;53.132;8.230;2023-06-22T01:38:37;101966.88;;;30.86;34.95
80401;BME280;69727;53.132;8.230;2023-06-22T01:41:03;101960.69;;;30.84;35.04
80401;BME280;69727;53.132;8.230;2023-06-22T01:43:30;101966.03;;;30.85;35.33
80401;BME280;69727;53.132;8.230;2023-06-22T01:45:56;101958.81;;;30.84;35.21
80401;BME280;69727;53.132;8.230;2023-06-22T01:48:23;101957.97;;;30.84;35.25
80401;BME280;69727;53.132;8.230;2023-06-22T01:50:49;101951.16;;;30.78;35.31
80401;BME280;69727;53.132;8.230;2023-06-22T01:53:14;101950.19;;;30.79;35.04
80401;BME280;69727;53.132;8.230;2023-06-22T01:55:40;101950.59;;;30.75;34.95
80401;BME280;69727;53.132;8.230;2023-06-22T01:58:05;101948.97;;;30.72;35.26
80401;BME280;69727;53.132;8.230;2023-06-22T02:00:37;101948.97;;;30.72;35.49
80401;BME280;69727;53.132;8.230;2023-06-22T02:03:10;101947.66;;;30.66;35.03
80401;BME280;69727;53.132;8.230;2023-06-22T02:05:47;101944.19;;;30.64;34.99
80401;BME280;69727;53.132;8.230;2023-06-22T02:08:24;101948.47;;;30.57;35.16
80401;BME280;69727;53.132;8.230;2023-06-22T02:10:51;101964.25;;;30.53;35.55
80401;BME280;69727;53.132;8.230;2023-06-22T02:13:18;101948.28;;;30.49;35.27
80401;BME280;69727;53.132;8.230;2023-06-22T02:15:45;101945.69;;;30.47;35.33
80401;BME280;69727;53.132;8.230;2023-06-22T02:18:11;101952.25;;;30.45;35.49
80401;BME280;69727;53.132;8.230;2023-06-22T02:20:38;101953.38;;;30.42;35.36
80401;BME280;69727;53.132;8.230;2023-06-22T02:23:05;101952.41;;;30.43;35.94
80401;BME280;69727;53.132;8.230;2023-06-22T02:25:31;101953.88;;;30.36;35.76
80401;BME280;69727;53.132;8.230;2023-06-22T02:27:57;101955.88;;;30.34;35.46
80401;BME280;69727;53.132;8.230;2023-06-22T02:30:22;101955.03;;;30.33;35.42
80401;BME280;69727;53.132;8.230;2023-06-22T02:32:48;101959.19;;;30.37;35.33
80401;BME280;69727;53.132;8.230;2023-06-22T02:35:13;101962.94;;;30.36;35.25
80401;BME280;69727;53.132;8.230;2023-06-22T02:37:39;101951.53;;;30.31;35.64
80401;BME280;69727;53.132;8.230;2023-06-22T02:40:09;101964.19;;;30.32;35.32
80401;BME280;69727;53.132;8.230;2023-06-22T02:42:36;101961.00;;;30.27;35.51
80401;BME280;69727;53.132;8.230;2023-06-22T02:45:01;101960.16;;;30.27;35.73
80401;BME280;69727;53.132;8.230;2023-06-22T02:47:27;101961.72;;;30.29;35.86
80401;BME280;69727;53.132;8.230;2023-06-22T02:49:52;101958.75;;;30.32;35.11
80401;BME280;69727;53.132;8.230;2023-06-22T02:52:18;101954.81;;;30.25;35.55
80401;BME280;69727;53.132;8.230;2023-06-22T02:54:43;101952.94;;;30.26;35.60
80401;BME280;69727;53.132;8.230;2023-06-22T02:57:11;101951.59;;;30.20;35.34
80401;BME280;69727;53.132;8.230;2023-06-22T02:59:39;101958.34;;;30.16;35.67
80401;BME280;69727;53.132;8.230;2023-06-22T03:02:06;101966.91;;;30.11;36.04
80401;BME280;69727;53.132;8.230;2023-06-22T03:04:31;101969.38;;;30.14;35.79
80401;BME280;69727;53.132;8.230;2023-06-22T03:06:57;101965.16;;;30.10;35.64
80401;BME280;69727;53.132;8.230;2023-06-22T03:09:26;101957.09;;;30.09;35.98
80401;BME280;69727;53.132;8.230;2023-06-22T03:11:53;101958.09;;;30.08;35.99
80401;BME280;69727;53.132;8.230;2023-06-22T03:14:18;101960.94;;;30.06;35.66
80401;BME280;69727;53.132;8.230;2023-06-22T03:16:43;101959.13;;;30.07;36.23
80401;BME280;69727;53.132;8.230;2023-06-22T03:19:09;101958.09;;;30.08;35.80
80401;BME280;69727;53.132;8.230;2023-06-22T03:21:35;101963.28;;;30.11;36.07
80401;BME280;69727;53.132;8.230;2023-06-22T03:24:02;101967.63;;;30.13;35.91
80401;BME280;69727;53.132;8.230;2023-06-22T03:26:28;101967.63;;;30.13;36.00
80401;BME280;69727;53.132;8.230;2023-06-22T03:28:54;101968.09;;;30.18;35.85
80401;BME280;69727;53.132;8.230;2023-06-22T03:31:20;101969.06;;;30.29;35.35
80401;BME280;69727;53.132;8.230;2023-06-22T03:33:47;101966.13;;;30.21;35.83
80401;BME280;69727;53.132;8.230;2023-06-22T03:36:13;101963.72;;;30.27;35.58
80401;BME280;69727;53.132;8.230;2023-06-22T03:38:39;101971.66;;;30.30;35.53
80401;BME280;69727;53.132;8.230;2023-06-22T03:41:04;101975.84;;;30.34;35.53
80401;BME280;69727;53.132;8.230;2023-06-22T03:43:30;101974.84;;;30.35;35.76
80401;BME280;69727;53.132;8.230;2023-06-22T03:45:55;101976.84;;;30.33;35.47
80401;BME280;69727;53.132;8.230;2023-06-22T03:48:20;101980.94;;;30.39;35.37
80401;BME280;69727;53.132;8.230;2023-06-22T03:50:46;101981.69;;;30.41;35.61
80401;BME280;69727;53.132;8.230;2023-06-22T03:53:11;101979.41;;;30.46;35.30
80401;BME280;69727;53.132;8.230;2023-06-22T03:55:47;101986.94;;;30.54;35.47
80401;BME280;69727;53.132;8.230;2023-06-22T03:58:13;101983.22;;;30.55;35.50
80401;BME280;69727;53.132;8.230;2023-06-22T04:00:39;101993.88;;;30.58;35.11
80401;BME280;69727;53.132;8.230;2023-06-22T04:03:04;101990.00;;;30.61;35.62
80401;BME280;69727;53.132;8.230;2023-06-22T04:05:32;101990.13;;;30.59;35.78
80401;BME280;69727;53.132;8.230;2023-06-22T04:07:57;101996.19;;;30.63;35.42
80401;BME280;69727;53.132;8.230;2023-06-22T04:10:23;101991.69;;;30.52;35.19
80401;BME280;69727;53.132;8.230;2023-06-22T04:12:48;101988.19;;;30.50;35.77
80401;BME280;69727;53.132;8.230;2023-06-22T04:15:13;102000.00;;;30.50;35.27
80401;BME280;69727;53.132;8.230;2023-06-22T04:17:39;101995.53;;;30.49;35.53
80401;BME280;69727;53.132;8.230;2023-06-22T04:20:05;101999.50;;;30.45;35.59
80401;BME280;69727;53.132;8.230;2023-06-22T04:22:30;101992.94;;;30.48;35.57
80401;BME280;69727;53.132;8.230;2023-06-22T04:24:55;101992.81;;;30.49;35.06
80401;BME280;69727;53.132;8.230;2023-06-22T04:27:21;101987.06;;;30.52;35.34
80401;BME280;69727;53.132;8.230;2023-06-22T04:29:50;101943.91;;;30.25;35.28
80401;BME280;69727;53.132;8.230;2023-06-22T04:32:22;101944.63;;;30.27;35.20
80401;BME280;69727;53.132;8.230;2023-06-22T04:34:54;101970.78;;;30.41;35.11
80401;BME280;69727;53.132;8.230;2023-06-22T04:37:20;101942.81;;;30.37;34.87
80401;BME280;69727;53.132;8.230;2023-06-22T04:39:48;101961.56;;;30.42;35.52
80401;BME280;69727;53.132;8.230;2023-06-22T04:42:14;101981.88;;;30.49;35.04
80401;BME280;69727;53.132;8.230;2023-06-22T04:44:43;101971.44;;;30.54;35.02
80401;BME280;69727;53.132;8.230;2023-06-22T04:47:08;102000.13;;;30.70;34.86
80401;BME280;69727;53.132;8.230;2023-06-22T04:49:35;101994.34;;;30.63;35.46
80401;BME280;69727;53.132;8.230;2023-06-22T04:52:10;101961.16;;;30.47;34.58
80401;BME280;69727;53.132;8.230;2023-06-22T04:54:37;101973.88;;;30.58;35.25
80401;BME280;69727;53.132;8.230;2023-06-22T04:57:14;101983.63;;;30.71;34.60
80401;BME280;69727;53.132;8.230;2023-06-22T04:59:40;101973.69;;;30.70;34.82
80401;BME280;69727;53.132;8.230;2023-06-22T05:02:07;101978.69;;;30.86;34.62
80401;BME280;69727;53.132;8.230;2023-06-22T05:04:33;101987.69;;;30.98;34.73
80401;BME280;69727;53.132;8.230;2023-06-22T05:07:01;101972.91;;;31.01;34.31
80401;BME280;69727;53.132;8.230;2023-06-22T05:09:27;101980.06;;;31.02;34.84
80401;BME280;69727;53.132;8.230;2023-06-22T05:11:52;101982.66;;;31.03;34.82
80401;BME280;69727;53.132;8.230;2023-06-22T05:14:18;101983.00;;;31.10;34.19
80401;BME280;69727;53.132;8.230;2023-06-22T05:16:44;101988.06;;;31.15;34.44
80401;BME280;69727;53.132;8.230;2023-06-22T05:19:10;101974.19;;;31.06;34.17
80401;BME280;69727;53.132;8.230;2023-06-22T05:21:36;101988.34;;;31.12;33.86
80401;BME280;69727;53.132;8.230;2023-06-22T05:24:01;101989.31;;;31.11;34.54
80401;BME280;69727;53.132;8.230;2023-06-22T05:26:29;101980.69;;;31.05;34.46
80401;BME280;69727;53.132;8.230;2023-06-22T05:28:55;101989.47;;;31.09;34.31
80401;BME280;69727;53.132;8.230;2023-06-22T05:31:20;101991.28;;;30.99;34.04
80401;BME280;69727;53.132;8.230;2023-06-22T05:33:46;101981.59;;;30.95;34.29
80401;BME280;69727;53.132;8.230;2023-06-22T05:36:12;101983.97;;;30.99;34.28
80401;BME280;69727;53.132;8.230;2023-06-22T05:38:38;101981.53;;;31.06;33.74
80401;BME280;69727;53.132;8.230;2023-06-22T05:41:04;101969.66;;;30.96;34.19
80401;BME280;69727;53.132;8.230;2023-06-22T05:43:30;101973.53;;;31.14;34.04
80401;BME280;69727;53.132;8.230;2023-06-22T05:45:55;101972.41;;;31.17;33.97
80401;BME280;69727;53.132;8.230;2023-06-22T05:48:21;101977.22;;;31.44;33.76
80401;BME280;69727;53.132;8.230;2023-06-22T05:50:47;101968.84;;;31.57;33.77
80401;BME280;69727;53.132;8.230;2023-06-22T05:53:12;101976.09;;;31.87;33.46
80401;BME280;69727;53.132;8.230;2023-06-22T05:55:37;101973.63;;;31.84;32.81
80401;BME280;69727;53.132;8.230;2023-06-22T05:58:03;101975.22;;;32.06;32.47
80401;BME280;69727;53.132;8.230;2023-06-22T06:00:29;101968.94;;;32.15;32.04
80401;BME280;69727;53.132;8.230;2023-06-22T06:02:54;101988.06;;;32.35;32.36
80401;BME280;69727;53.132;8.230;2023-06-22T06:05:19;101979.31;;;32.51;31.40
80401;BME280;69727;53.132;8.230;2023-06-22T06:07:45;101964.88;;;32.49;31.09
80401;BME280;69727;53.132;8.230;2023-06-22T06:10:11;101976.28;;;32.64;30.85
80401;BME280;69727;53.132;8.230;2023-06-22T06:12:37;101988.31;;;32.91;30.93
80401;BME280;69727;53.132;8.230;2023-06-22T06:15:04;101974.81;;;33.17;30.71
80401;BME280;69727;53.132;8.230;2023-06-22T06:17:29;101980.91;;;33.20;30.25
80401;BME280;69727;53.132;8.230;2023-06-22T06:19:55;101980.63;;;33.41;29.91
80401;BME280;69727;53.132;8.230;2023-06-22T06:22:20;101961.75;;;33.38;29.98
80401;BME280;69727;53.132;8.230;2023-06-22T06:24:47;101956.47;;;33.55;29.41
80401;BME280;69727;53.132;8.230;2023-06-22T06:27:13;101973.13;;;33.71;29.16
80401;BME280;69727;53.132;8.230;2023-06-22T06:29:38;101964.78;;;33.91;28.94
80401;BME280;69727;53.132;8.230;2023-06-22T06:32:04;101970.25;;;34.09;28.67
80401;BME280;69727;53.132;8.230;2023-06-22T06:34:29;101975.84;;;34.17;28.26
80401;BME280;69727;53.132;8.230;2023-06-22T06:36:55;101966.81;;;34.25;28.05
80401;BME280;69727;53.132;8.230;2023-06-22T06:39:20;101976.38;;;34.39;28.27
80401;BME280;69727;53.132;8.230;2023-06-22T06:41:45;101968.41;;;34.45;28.17
80401;BME280;69727;53.132;8.230;2023-06-22T06:44:11;101983.22;;;34.35;27.93
80401;BME280;69727;53.132;8.230;2023-06-22T06:46:36;101974.47;;;34.57;28.05
80401;BME280;69727;53.132;8.230;2023-06-22T06:49:03;101972.66;;;34.66;27.71
80401;BME280;69727;53.132;8.230;2023-06-22T06:51:28;101976.66;;;34.98;27.49
80401;BME280;69727;53.132;8.230;2023-06-22T06:53:53;101986.53;;;35.09;26.99
80401;BME280;69727;53.132;8.230;2023-06-22T06:56:19;101976.69;;;35.06;27.29
80401;BME280;69727;53.132;8.230;2023-06-22T06:58:44;101985.88;;;35.15;26.64
80401;BME280;69727;53.132;8.230;2023-06-22T07:01:11;101977.78;;;35.13;26.50
80401;BME280;69727;53.132;8.230;2023-06-22T07:03:37;101975.19;;;35.12;26.79
80401;BME280;69727;53.132;8.230;2023-06-22T07:06:03;101973.97;;;35.41;26.48
80401;BME280;69727;53.132;8.230;2023-06-22T07:08:28;101974.91;;;35.66;25.57
80401;BME280;69727;53.132;8.230;2023-06-22T07:10:54;101985.06;;;36.49;24.22
80401;BME280;69727;53.132;8.230;2023-06-22T07:13:19;101987.06;;;36.96;23.76
80401;BME280;69727;53.132;8.230;2023-06-22T07:15:45;101977.56;;;37.86;22.27
80401;BME280;69727;53.132;8.230;2023-06-22T07:18:10;101972.56;;;38.36;22.04
80401;BME280;69727;53.132;8.230;2023-06-22T07:21:18;101928.94;;;38.62;20.70
80401;BME280;69727;53.132;8.230;2023-06-22T07:34:24;101967.09;;;40.35;19.45
80401;BME280;69727;53.132;8.230;2023-06-22T07:36:50;101966.00;;;40.58;19.35
80401;BME280;69727;53.132;8.230;2023-06-22T07:39:15;101967.53;;;40.61;19.10
80401;BME280;69727;53.132;8.230;2023-06-22T07:41:41;101966.47;;;40.40;19.11
80401;BME280;69727;53.132;8.230;2023-06-22T07:44:06;101963.50;;;40.13;19.10
80401;BME280;69727;53.132;8.230;2023-06-22T07:46:32;101956.06;;;40.21;19.52
80401;BME280;69727;53.132;8.230;2023-06-22T07:48:58;101952.91;;;40.24;19.21
80401;BME280;69727;53.132;8.230;2023-06-22T07:51:24;101961.91;;;40.47;19.34
80401;BME280;69727;53.132;8.230;2023-06-22T07:53:50;101969.94;;;40.70;18.84
80401;BME280;69727;53.132;8.230;2023-06-22T07:56:15;101966.72;;;40.67;18.73
80401;BME280;69727;53.132;8.230;2023-06-22T07:58:45;101952.41;;;40.63;18.59
80401;BME280;69727;53.132;8.230;2023-06-22T08:01:11;101951.31;;;40.64;19.26
80401;BME280;69727;53.132;8.230;2023-06-22T08:03:36;101951.09;;;40.38;18.93
80401;BME280;69727;53.132;8.230;2023-06-22T08:06:02;101939.56;;;39.91;18.85
80401;BME280;69727;53.132;8.230;2023-06-22T08:08:27;101943.22;;;39.70;20.36
80401;BME280;69727;53.132;8.230;2023-06-22T08:10:52;101934.22;;;39.31;20.75
80401;BME280;69727;53.132;8.230;2023-06-22T08:13:18;101940.06;;;39.06;20.76
80401;BME280;69727;53.132;8.230;2023-06-22T08:15:44;101926.81;;;38.72;20.94
80401;BME280;69727;53.132;8.230;2023-06-22T08:18:09;101927.22;;;38.61;20.92
80401;BME280;69727;53.132;8.230;2023-06-22T08:20:38;101923.69;;;38.37;21.31
80401;BME280;69727;53.132;8.230;2023-06-22T08:23:03;101924.38;;;37.93;22.21
80401;BME280;69727;53.132;8.230;2023-06-22T08:25:35;101922.13;;;37.65;22.43
80401;BME280;69727;53.132;8.230;2023-06-22T08:28:01;101925.56;;;37.44;22.51
80401;BME280;69727;53.132;8.230;2023-06-22T08:30:27;101930.97;;;37.29;22.68
80401;BME280;69727;53.132;8.230;2023-06-22T08:32:52;101915.66;;;37.26;22.81
80401;BME280;69727;53.132;8.230;2023-06-22T08:35:18;101921.13;;;37.35;22.67
80401;BME280;69727;53.132;8.230;2023-06-22T08:37:44;101921.59;;;37.46;22.97
80401;BME280;69727;53.132;8.230;2023-06-22T08:40:15;101922.06;;;37.50;22.50
80401;BME280;69727;53.132;8.230;2023-06-22T08:42:41;101917.69;;;37.32;22.97
80401;BME280;69727;53.132;8.230;2023-06-22T08:45:07;101922.69;;;37.21;22.78
80401;BME280;69727;53.132;8.230;2023-06-22T08:47:32;101916.97;;;37.39;23.65
80401;BME280;69727;53.132;8.230;2023-06-22T08:49:58;101921.66;;;37.61;23.23
80401;BME280;69727;53.132;8.230;2023-06-22T08:52:23;101918.69;;;37.63;23.10
80401;BME280;69727;53.132;8.230;2023-06-22T08:54:49;101911.94;;;37.74;22.80
80401;BME280;69727;53.132;8.230;2023-06-22T08:57:15;101914.16;;;37.78;22.89
80401;BME280;69727;53.132;8.230;2023-06-22T08:59:41;101908.88;;;37.37;22.71
80401;BME280;69727;53.132;8.230;2023-06-22T09:02:07;101917.84;;;37.62;23.22
80401;BME280;69727;53.132;8.230;2023-06-22T09:04:32;101906.78;;;37.71;22.57
80401;BME280;69727;53.132;8.230;2023-06-22T09:07:01;101899.53;;;37.93;22.65
80401;BME280;69727;53.132;8.230;2023-06-22T09:09:27;101905.97;;;38.08;22.05
80401;BME280;69727;53.132;8.230;2023-06-22T09:11:52;101915.09;;;38.32;22.56
80401;BME280;69727;53.132;8.230;2023-06-22T09:14:17;101905.59;;;38.34;22.18
80401;BME280;69727;53.132;8.230;2023-06-22T09:16:43;101906.16;;;38.45;21.80
80401;BME280;69727;53.132;8.230;2023-06-22T09:19:08;101899.78;;;38.44;21.79
80401;BME280;69727;53.132;8.230;2023-06-22T09:21:34;101891.03;;;38.55;21.76
80401;BME280;69727;53.132;8.230;2023-06-22T09:23:59;101887.75;;;38.75;22.51
80401;BME280;69727;53.132;8.230;2023-06-22T09:26:25;101884.41;;;38.80;21.81
80401;BME280;69727;53.132;8.230;2023-06-22T09:28:50;101880.94;;;38.92;22.12
80401;BME280;69727;53.132;8.230;2023-06-22T09:31:16;101880.84;;;39.01;21.37
80401;BME280;69727;53.132;8.230;2023-06-22T09:33:42;101878.53;;;39.04;21.12
80401;BME280;69727;53.132;8.230;2023-06-22T09:36:07;101871.56;;;39.23;21.06
80401;BME280;69727;53.132;8.230;2023-06-22T09:38:37;101872.28;;;38.96;21.61
80401;BME280;69727;53.132;8.230;2023-06-22T09:41:03;101866.53;;;39.27;20.74
80401;BME280;69727;53.132;8.230;2023-06-22T09:43:29;101863.19;;;39.53;20.77
80401;BME280;69727;53.132;8.230;2023-06-22T09:45:54;101866.50;;;39.63;21.47
80401;BME280;69727;53.132;8.230;2023-06-22T09:48:20;101863.28;;;39.60;20.43
80401;BME280;69727;53.132;8.230;2023-06-22T09:50:46;101864.31;;;39.59;20.92
80401;BME280;69727;53.132;8.230;2023-06-22T09:53:12;101865.66;;;39.63;21.04
80401;BME280;69727;53.132;8.230;2023-06-22T09:55:37;101863.72;;;39.63;20.77
80401;BME280;69727;53.132;8.230;2023-06-22T09:58:02;101855.63;;;39.83;19.97
80401;BME280;69727;53.132;8.230;2023-06-22T10:00:28;101869.25;;;39.85;19.89
80401;BME280;69727;53.132;8.230;2023-06-22T10:02:53;101866.09;;;39.88;20.41
80401;BME280;69727;53.132;8.230;2023-06-22T10:05:19;101856.06;;;39.87;19.32
80401;BME280;69727;53.132;8.230;2023-06-22T10:07:44;101841.03;;;39.96;19.53
80401;BME280;69727;53.132;8.230;2023-06-22T10:10:11;101852.94;;;40.18;19.54
80401;BME280;69727;53.132;8.230;2023-06-22T10:12:41;101851.34;;;40.38;19.38
80401;BME280;69727;53.132;8.230;2023-06-22T10:15:07;101843.84;;;40.31;18.60
80401;BME280;69727;53.132;8.230;2023-06-22T10:17:32;101842.81;;;40.67;19.55
80401;BME280;69727;53.132;8.230;2023-06-22T10:19:58;101833.66;;;41.15;19.52
80401;BME280;69727;53.132;8.230;2023-06-22T10:22:23;101826.91;;;41.31;18.43
80401;BME280;69727;53.132;8.230;2023-06-22T10:24:49;101835.53;;;41.01;18.45
80401;BME280;69727;53.132;8.230;2023-06-22T10:27:14;101840.47;;;41.13;18.26
80401;BME280;69727;53.132;8.230;2023-06-22T10:29:40;101833.50;;;41.30;18.52
80401;BME280;69727;53.132;8.230;2023-06-22T10:32:06;101832.28;;;41.53;18.75
80401;BME280;69727;53.132;8.230;2023-06-22T10:34:32;101823.13;;;41.72;17.65
80401;BME280;69727;53.132;8.230;2023-06-22T10:36:57;101825.47;;;41.95;17.53
80401;BME280;69727;53.132;8.230;2023-06-22T10:39:23;101821.59;;;42.17;17.12
80401;BME280;69727;53.132;8.230;2023-06-22T10:41:48;101821.19;;;42.06;17.72
80401;BME280;69727;53.132;8.230;2023-06-22T10:44:13;101825.44;;;42.22;18.06
80401;BME280;69727;53.132;8.230;2023-06-22T10:46:39;101825.84;;;42.39;17.38
80401;BME280;69727;53.132;8.230;2023-06-22T10:49:05;101824.78;;;42.40;17.35
80401;BME280;69727;53.132;8.230;2023-06-22T10:51:30;101830.06;;;42.69;16.77
80401;BME280;69727;53.132;8.230;2023-06-22T10:53:57;101826.41;;;42.68;16.77
80401;BME280;69727;53.132;8.230;2023-06-22T10:56:22;101813.09;;;42.83;16.57
80401;BME280;69727;53.132;8.230;2023-06-22T10:58:48;101814.66;;;42.53;16.94
80401;BME280;69727;53.132;8.230;2023-06-22T11:01:13;101811.25;;;42.50;17.17
80401;BME280;69727;53.132;8.230;2023-06-22T11:03:39;101807.19;;;42.60;17.44
80401;BME280;69727;53.132;8.230;2023-06-22T11:06:04;101809.53;;;42.63;17.35
80401;BME280;69727;53.132;8.230;2023-06-22T11:08:30;101805.91;;;42.62;16.71
80401;BME280;69727;53.132;8.230;2023-06-22T11:10:55;101805.94;;;42.56;17.59
80401;BME280;69727;53.132;8.230;2023-06-22T11:13:20;101798.97;;;42.06;17.48
80401;BME280;69727;53.132;8.230;2023-06-22T11:15:46;101801.91;;;42.31;18.03
80401;BME280;69727;53.132;8.230;2023-06-22T11:18:11;101789.44;;;42.67;17.39
80401;BME280;69727;53.132;8.230;2023-06-22T11:20:37;101793.50;;;43.10;17.79
80401;BME280;69727;53.132;8.230;2023-06-22T11:23:06;101789.47;;;43.06;16.50
80401;BME280;69727;53.132;8.230;2023-06-22T11:25:32;101794.59;;;43.09;16.96
80401;BME280;69727;53.132;8.230;2023-06-22T11:28:00;101790.78;;;42.45;16.67
80401;BME280;69727;53.132;8.230;2023-06-22T11:30:26;101781.84;;;43.20;17.00
80401;BME280;69727;53.132;8.230;2023-06-22T11:32:52;101783.97;;;43.25;16.74
80401;BME280;69727;53.132;8.230;2023-06-22T11:35:17;101763.94;;;43.16;17.08
80401;BME280;69727;53.132;8.230;2023-06-22T11:38:10;101763.94;;;43.16;17.08
80401;BME280;69727;53.132;8.230;2023-06-22T11:40:35;101772.03;;;42.79;17.42
80401;BME280;69727;53.132;8.230;2023-06-22T11:43:01;101759.19;;;42.33;17.46
80401;BME280;69727;53.132;8.230;2023-06-22T11:45:26;101763.06;;;42.25;17.70
80401;BME280;69727;53.132;8.230;2023-06-22T11:47:52;101766.00;;;42.30;17.51
80401;BME280;69727;53.132;8.230;2023-06-22T11:50:17;101763.25;;;42.23;17.58
80401;BME280;69727;53.132;8.230;2023-06-22T11:52:42;101762.81;;;42.13;18.16
80401;BME280;69727;53.132;8.230;2023-06-22T11:55:08;101757.75;;;41.90;17.16
80401;BME280;69727;53.132;8.230;2023-06-22T11:57:36;101764.16;;;41.64;18.14
80401;BME280;69727;53.132;8.230;2023-06-22T12:00:01;101772.06;;;41.53;18.67
80401;BME280;69727;53.132;8.230;2023-06-22T12:02:31;101769.72;;;41.43;18.41
80401;BME280;69727;53.132;8.230;2023-06-22T12:04:57;101760.53;;;41.43;18.94
80401;BME280;69727;53.132;8.230;2023-06-22T12:07:23;101763.72;;;41.33;18.41
80401;BME280;69727;53.132;8.230;2023-06-22T12:09:48;101758.97;;;41.14;18.89
80401;BME280;69727;53.132;8.230;2023-06-22T12:12:14;101764.66;;;40.85;18.86
80401;BME280;69727;53.132;8.230;2023-06-22T12:14:39;101751.38;;;40.74;19.72
80401;BME280;69727;53.132;8.230;2023-06-22T12:17:05;101747.75;;;40.74;19.56
80401;BME280;69727;53.132;8.230;2023-06-22T12:19:30;101743.09;;;40.39;19.41
80401;BME280;69727;53.132;8.230;2023-06-22T12:21:56;101745.72;;;40.12;20.04
80401;BME280;69727;53.132;8.230;2023-06-22T12:24:21;101738.84;;;40.02;19.82
80401;BME280;69727;53.132;8.230;2023-06-22T12:26:46;101738.97;;;39.93;19.99
80401;BME280;69727;53.132;8.230;2023-06-22T12:29:12;101738.69;;;39.81;20.48
80401;BME280;69727;53.132;8.230;2023-06-22T12:31:37;101737.63;;;39.54;20.51
80401;BME280;69727;53.132;8.230;2023-06-22T12:34:04;101739.78;;;39.59;21.05
80401;BME280;69727;53.132;8.230;2023-06-22T12:36:30;101727.13;;;39.71;20.53
80401;BME280;69727;53.132;8.230;2023-06-22T12:38:55;101726.91;;;39.73;21.20
80401;BME280;69727;53.132;8.230;2023-06-22T12:41:20;101717.56;;;39.74;20.86
80401;BME280;69727;53.132;8.230;2023-06-22T12:43:46;101715.56;;;39.39;21.46
80401;BME280;69727;53.132;8.230;2023-06-22T12:46:12;101703.63;;;39.60;20.94
80401;BME280;69727;53.132;8.230;2023-06-22T12:48:37;101701.56;;;39.69;21.07
80401;BME280;69727;53.132;8.230;2023-06-22T12:51:07;101690.94;;;39.51;21.01
80401;BME280;69727;53.132;8.230;2023-06-22T12:53:33;101695.19;;;39.47;20.80
80401;BME280;69727;53.132;8.230;2023-06-22T12:55:58;101692.19;;;39.70;21.05
80401;BME280;69727;53.132;8.230;2023-06-22T12:58:24;101683.75;;;39.78;21.15
80401;BME280;69727;53.132;8.230;2023-06-22T13:00:49;101677.56;;;40.11;20.95
80401;BME280;69727;53.132;8.230;2023-06-22T13:03:15;101677.31;;;40.48;20.88
80401;BME280;69727;53.132;8.230;2023-06-22T13:05:40;101678.84;;;40.64;19.88